Pozo, California
Current Conditions -  °F | °C
As of 2:51 AM on Thursday 23 Oct 2014 (Local Time) from KSMX Reporting Station
Clear Clear  
Wind Chill: 55°   Ceiling: Unl
Heat Index: 55°   Visibility: 10mi
Dew Point: 47°   Wind: 3mph
Humidity: 74%   Direction: 130°SE
Pressure: 29.97"   Gusts: NA
Location:  35.235°N, 120.021°W
Report Text: KSMX 230951Z AUTO 13003KT 10SM CLR 13/08 A2997 RMK AO2 SLP149 T01280083
Loading
Personal Weather Stations






























Interactive Weather Map
Tropical Storm Tracking
New forecast layout! Learn more

10-Day Weather Forecast

Advertisements
Track Severe Weather on mobile